createdAt,value
2018-03-26T00:00:00.987Z,8.97
2018-03-26T00:01:01.458Z,8.73
2018-03-26T00:02:01.864Z,8.82
2018-03-26T00:03:02.277Z,8.91
2018-03-26T00:04:02.779Z,8.79
2018-03-26T00:05:03.126Z,8.85
2018-03-26T00:06:03.548Z,8.81
2018-03-26T00:07:04.024Z,8.84
2018-03-26T00:08:04.466Z,8.84
2018-03-26T00:09:04.819Z,8.84
2018-03-26T00:10:05.254Z,8.84
2018-03-26T00:11:05.677Z,8.69
2018-03-26T00:12:06.106Z,8.63
2018-03-26T00:13:06.523Z,8.74
2018-03-26T00:14:06.957Z,8.74
2018-03-26T00:15:07.384Z,8.84
2018-03-26T00:16:07.805Z,8.78
2018-03-26T00:17:08.234Z,8.82
2018-03-26T00:18:08.658Z,8.92
2018-03-26T00:19:09.088Z,8.76
2018-03-26T00:20:09.593Z,8.82
2018-03-26T00:21:09.933Z,8.76
2018-03-26T00:22:10.360Z,8.76
2018-03-26T00:23:10.777Z,8.79
2018-03-26T00:24:11.214Z,8.69
2018-03-26T00:25:11.639Z,8.67
2018-03-26T00:26:12.056Z,8.73
2018-03-26T00:27:12.557Z,8.78
2018-03-26T00:28:12.939Z,8.70
2018-03-26T00:29:13.348Z,8.81
2018-03-26T00:30:13.760Z,8.67
2018-03-26T00:31:14.213Z,8.82
2018-03-26T00:32:14.619Z,8.69
2018-03-26T00:33:15.041Z,8.69
2018-03-26T00:34:15.568Z,8.71
2018-03-26T00:35:15.883Z,8.95
2018-03-26T00:36:16.324Z,8.79
2018-03-26T00:37:16.741Z,8.85
2018-03-26T00:38:17.169Z,8.79
2018-03-26T00:39:17.596Z,8.84
2018-03-26T00:40:18.020Z,8.84
2018-03-26T00:41:18.446Z,8.91
2018-03-26T00:42:18.879Z,8.97
2018-03-26T00:43:19.310Z,8.81
2018-03-26T00:44:19.720Z,8.94
2018-03-26T00:45:20.147Z,8.74
2018-03-26T00:46:20.575Z,8.84
2018-03-26T00:47:21.001Z,8.78
2018-03-26T00:48:21.427Z,8.79
2018-03-26T00:49:21.846Z,8.85
2018-03-26T00:50:22.284Z,8.89
2018-03-26T00:51:22.705Z,8.74
2018-03-26T00:52:23.129Z,8.79
2018-03-26T00:53:23.568Z,8.81
2018-03-26T00:54:23.973Z,8.79
2018-03-26T00:55:24.411Z,8.76
2018-03-26T00:56:24.838Z,8.82
2018-03-26T00:57:25.286Z,8.76
2018-03-26T00:58:25.689Z,8.71
2018-03-26T00:59:26.112Z,8.61
2018-03-26T01:00:26.535Z,8.58
2018-03-26T01:01:26.968Z,8.58
2018-03-26T01:02:27.385Z,8.64
2018-03-26T01:03:27.810Z,8.79
2018-03-26T01:04:28.240Z,8.76
2018-03-26T01:05:28.660Z,8.61
2018-03-26T01:06:29.089Z,8.67
2018-03-26T01:07:29.518Z,8.69
2018-03-26T01:08:29.961Z,8.64
2018-03-26T01:09:30.368Z,8.71
2018-03-26T01:10:30.803Z,8.71
2018-03-26T01:11:31.213Z,8.63
2018-03-26T01:12:31.652Z,8.71
2018-03-26T01:13:32.066Z,8.69
2018-03-26T01:14:32.504Z,8.71
2018-03-26T01:15:32.930Z,8.66
2018-03-26T01:16:33.366Z,8.71
2018-03-26T01:17:33.796Z,8.69
2018-03-26T01:18:34.207Z,8.70
2018-03-26T01:19:34.623Z,8.58
2018-03-26T01:20:35.050Z,8.67
2018-03-26T01:21:35.475Z,8.56
2018-03-26T01:22:35.897Z,8.56
2018-03-26T01:23:36.321Z,8.56
2018-03-26T01:24:36.754Z,8.52
2018-03-26T01:25:37.181Z,8.46
2018-03-26T01:26:37.600Z,8.61
2018-03-26T01:27:38.022Z,8.61
2018-03-26T01:28:38.449Z,8.63
2018-03-26T01:29:38.887Z,8.81
2018-03-26T01:30:39.301Z,8.64
2018-03-26T01:31:39.726Z,8.55
2018-03-26T01:32:40.154Z,8.60
2018-03-26T01:33:40.591Z,8.66
2018-03-26T01:34:41.009Z,8.58
2018-03-26T01:35:41.430Z,8.55
2018-03-26T01:36:41.855Z,8.63
2018-03-26T01:37:42.295Z,8.71
2018-03-26T01:38:42.715Z,8.70
2018-03-26T01:39:43.135Z,8.64
2018-03-26T01:40:43.555Z,8.69
2018-03-26T01:41:43.989Z,8.64
2018-03-26T01:42:44.410Z,8.52
2018-03-26T01:43:44.834Z,8.58
2018-03-26T01:44:45.269Z,8.60
2018-03-26T01:45:45.692Z,8.46
2018-03-26T01:46:46.107Z,8.48
2018-03-26T01:47:46.551Z,8.36
2018-03-26T01:48:46.972Z,8.44
2018-03-26T01:49:47.389Z,8.44
2018-03-26T01:50:47.812Z,8.46
2018-03-26T01:51:48.236Z,8.27
2018-03-26T01:52:48.666Z,8.46
2018-03-26T01:53:49.088Z,8.51
2018-03-26T01:54:49.516Z,8.37
2018-03-26T01:55:49.937Z,8.38
2018-03-26T01:56:50.376Z,8.20
2018-03-26T01:57:50.791Z,8.26
2018-03-26T01:58:51.213Z,8.13
2018-03-26T01:59:51.647Z,8.15
2018-03-26T02:00:52.078Z,8.10
2018-03-26T02:01:52.494Z,8.15
2018-03-26T02:02:52.920Z,8.16
2018-03-26T02:03:53.348Z,8.13
2018-03-26T02:04:53.769Z,8.20
2018-03-26T02:05:54.193Z,8.15
2018-03-26T02:06:54.615Z,8.19
2018-03-26T02:07:55.044Z,8.16
2018-03-26T02:08:55.467Z,8.18
2018-03-26T02:09:55.894Z,8.23
2018-03-26T02:10:56.316Z,8.18
2018-03-26T02:11:56.753Z,8.24
2018-03-26T02:12:57.171Z,8.08
2018-03-26T02:13:57.591Z,8.15
2018-03-26T02:14:58.068Z,8.19
2018-03-26T02:15:58.466Z,8.08
2018-03-26T02:16:58.872Z,8.00
2018-03-26T02:17:59.325Z,8.00
2018-03-26T02:18:59.720Z,8.05
2018-03-26T02:20:00.140Z,7.95
2018-03-26T02:21:00.579Z,7.97
2018-03-26T02:22:01.005Z,8.01
2018-03-26T02:23:01.425Z,8.09
2018-03-26T02:24:01.850Z,8.05
2018-03-26T02:25:02.272Z,8.01
2018-03-26T02:26:02.688Z,8.03
2018-03-26T02:27:03.120Z,8.03
2018-03-26T02:28:03.550Z,8.15
2018-03-26T02:29:03.974Z,8.20
2018-03-26T02:30:04.403Z,8.20
2018-03-26T02:31:04.820Z,8.13
2018-03-26T02:32:05.240Z,7.98
2018-03-26T02:33:05.697Z,8.01
2018-03-26T02:34:06.102Z,7.88
2018-03-26T02:35:06.518Z,7.93
2018-03-26T02:36:06.941Z,8.00
2018-03-26T02:37:07.370Z,7.98
2018-03-26T02:38:07.788Z,7.87
2018-03-26T02:39:08.223Z,7.83
2018-03-26T02:40:08.642Z,7.94
2018-03-26T02:41:09.070Z,7.85
2018-03-26T02:42:09.494Z,7.85
2018-03-26T02:43:09.934Z,7.77
2018-03-26T02:44:10.340Z,7.77
2018-03-26T02:45:10.781Z,7.66
2018-03-26T02:46:11.197Z,7.80
2018-03-26T02:47:11.612Z,7.85
2018-03-26T02:48:12.047Z,7.94
2018-03-26T02:49:12.464Z,7.80
2018-03-26T02:50:12.899Z,7.80
2018-03-26T02:51:13.324Z,7.70
2018-03-26T02:52:13.741Z,7.72
2018-03-26T02:53:14.165Z,7.82
2018-03-26T02:54:14.605Z,7.75
2018-03-26T02:55:15.017Z,7.69
2018-03-26T02:56:15.449Z,7.85
2018-03-26T02:57:15.861Z,7.75
2018-03-26T02:58:16.306Z,7.70
2018-03-26T02:59:16.712Z,7.76
2018-03-26T03:00:17.139Z,7.67
2018-03-26T03:01:17.565Z,7.66
2018-03-26T03:02:17.995Z,7.69
2018-03-26T03:03:18.408Z,7.83
2018-03-26T03:04:18.833Z,7.77
2018-03-26T03:05:19.260Z,7.79
2018-03-26T03:06:19.719Z,7.82
2018-03-26T03:07:20.122Z,7.73
2018-03-26T03:08:20.562Z,7.91
2018-03-26T03:09:20.961Z,7.83
2018-03-26T03:10:21.383Z,7.85
2018-03-26T03:11:21.812Z,7.82
2018-03-26T03:12:22.233Z,7.70
2018-03-26T03:13:22.653Z,7.61
2018-03-26T03:14:23.077Z,7.67
2018-03-26T03:15:23.504Z,7.76
2018-03-26T03:16:23.965Z,7.70
2018-03-26T03:17:24.354Z,7.63
2018-03-26T03:18:24.780Z,7.75
2018-03-26T03:19:25.204Z,7.77
2018-03-26T03:20:25.626Z,7.85
2018-03-26T03:21:26.060Z,7.75
2018-03-26T03:22:26.496Z,7.95
2018-03-26T03:23:26.959Z,7.82
2018-03-26T03:24:27.323Z,7.69
2018-03-26T03:25:27.748Z,7.83
2018-03-26T03:26:28.193Z,7.94
2018-03-26T03:27:28.597Z,7.93
2018-03-26T03:28:29.036Z,7.98
2018-03-26T03:29:29.452Z,7.93
2018-03-26T03:30:29.880Z,7.87
2018-03-26T03:31:30.296Z,7.83
2018-03-26T03:32:30.733Z,7.82
2018-03-26T03:33:31.193Z,7.63
2018-03-26T03:34:31.579Z,7.67
2018-03-26T03:35:31.995Z,7.76
2018-03-26T03:36:32.475Z,7.82
2018-03-26T03:37:32.852Z,7.79
2018-03-26T03:38:33.265Z,7.66
2018-03-26T03:39:33.705Z,7.69
2018-03-26T03:40:34.121Z,7.63
2018-03-26T03:41:34.545Z,7.72
2018-03-26T03:42:34.972Z,7.60
2018-03-26T03:43:35.392Z,7.72
2018-03-26T03:44:35.819Z,7.75
2018-03-26T03:45:36.248Z,7.69
2018-03-26T03:46:36.664Z,7.72
2018-03-26T03:47:37.111Z,7.60
2018-03-26T03:48:37.574Z,7.69
2018-03-26T03:49:37.949Z,7.70
2018-03-26T03:50:38.368Z,7.72
2018-03-26T03:51:38.786Z,7.87
2018-03-26T03:52:39.227Z,7.82
2018-03-26T03:53:39.643Z,7.69
2018-03-26T03:54:40.066Z,7.77
2018-03-26T03:55:40.491Z,7.85
2018-03-26T03:56:40.918Z,7.73
2018-03-26T03:57:41.340Z,7.83
2018-03-26T03:58:41.784Z,7.80
2018-03-26T03:59:42.196Z,7.83
2018-03-26T04:00:42.614Z,7.67
2018-03-26T04:01:43.048Z,7.80
2018-03-26T04:02:43.469Z,7.79
2018-03-26T04:03:43.896Z,7.75
2018-03-26T04:04:44.315Z,7.80
2018-03-26T04:05:44.740Z,7.76
2018-03-26T04:06:45.161Z,7.72
2018-03-26T04:07:45.584Z,7.69
2018-03-26T04:08:46.012Z,7.73
2018-03-26T04:09:46.436Z,7.70
2018-03-26T04:10:46.878Z,7.76
2018-03-26T04:11:47.308Z,7.72
2018-03-26T04:12:47.707Z,7.76
2018-03-26T04:13:48.135Z,7.76
2018-03-26T04:14:48.555Z,7.75
2018-03-26T04:15:49.918Z,7.75
2018-03-26T04:16:49.413Z,7.70
2018-03-26T04:17:49.849Z,7.76
2018-03-26T04:18:50.265Z,7.53
2018-03-26T04:19:50.691Z,7.77
2018-03-26T04:20:51.122Z,7.69
2018-03-26T04:21:51.543Z,7.57
2018-03-26T04:22:51.996Z,7.60
2018-03-26T04:23:52.380Z,7.66
2018-03-26T04:24:52.808Z,7.67
2018-03-26T04:25:53.230Z,7.72
2018-03-26T04:26:53.664Z,7.85
2018-03-26T04:27:54.080Z,7.72
2018-03-26T04:28:54.542Z,7.51
2018-03-26T04:29:54.952Z,7.53
2018-03-26T04:30:55.353Z,7.60
2018-03-26T04:31:55.783Z,7.69
2018-03-26T04:32:56.196Z,7.70
2018-03-26T04:33:56.665Z,7.77
2018-03-26T04:34:57.076Z,7.85
2018-03-26T04:35:57.488Z,7.97
2018-03-26T04:36:57.915Z,8.00
2018-03-26T04:37:58.385Z,8.03
2018-03-26T04:38:58.762Z,7.85
2018-03-26T04:39:59.256Z,7.69
2018-03-26T04:40:59.608Z,7.85
2018-03-26T04:42:00.034Z,7.77
2018-03-26T04:43:00.448Z,7.76
2018-03-26T04:44:00.888Z,7.73
2018-03-26T04:45:01.300Z,7.80
2018-03-26T04:46:01.719Z,7.93
2018-03-26T04:47:02.178Z,7.98
2018-03-26T04:48:02.571Z,7.95
2018-03-26T04:49:03.020Z,7.82
2018-03-26T04:50:03.442Z,7.82
2018-03-26T04:51:03.848Z,7.87
2018-03-26T04:52:04.305Z,7.75
2018-03-26T04:53:04.711Z,7.88
2018-03-26T04:54:05.128Z,7.82
2018-03-26T04:55:05.554Z,7.91
2018-03-26T04:56:05.969Z,8.00
2018-03-26T04:57:06.392Z,7.85
2018-03-26T04:58:06.822Z,7.87
2018-03-26T04:59:07.252Z,7.97
2018-03-26T05:00:07.684Z,8.01
2018-03-26T05:01:08.114Z,7.98
2018-03-26T05:02:08.525Z,7.97
2018-03-26T05:03:08.983Z,7.98
2018-03-26T05:04:09.368Z,7.93
2018-03-26T05:05:09.812Z,7.93
2018-03-26T05:06:10.222Z,8.03
2018-03-26T05:07:10.643Z,8.16
2018-03-26T05:08:11.075Z,8.27
2018-03-26T05:09:11.491Z,8.27
2018-03-26T05:10:11.926Z,8.26
2018-03-26T05:11:12.343Z,8.18
2018-03-26T05:12:12.761Z,8.19
2018-03-26T05:13:13.192Z,8.20
2018-03-26T05:14:13.629Z,8.18
2018-03-26T05:15:14.035Z,8.27
2018-03-26T05:16:14.466Z,8.26
2018-03-26T05:17:14.887Z,8.26
2018-03-26T05:18:15.319Z,8.30
2018-03-26T05:19:15.741Z,8.19
2018-03-26T05:20:16.168Z,8.09
2018-03-26T05:21:16.589Z,7.98
2018-03-26T05:22:17.011Z,7.97
2018-03-26T05:23:17.525Z,7.98
2018-03-26T05:24:17.862Z,7.97
2018-03-26T05:25:18.291Z,7.91
2018-03-26T05:26:18.728Z,7.88
2018-03-26T05:27:19.136Z,8.00
2018-03-26T05:28:19.562Z,7.95
2018-03-26T05:29:19.986Z,7.97
2018-03-26T05:30:20.435Z,8.01
2018-03-26T05:31:20.845Z,8.12
2018-03-26T05:32:21.302Z,8.12
2018-03-26T05:33:21.692Z,8.15
2018-03-26T05:34:22.114Z,8.28
2018-03-26T05:35:22.559Z,8.20
2018-03-26T05:36:22.986Z,8.09
2018-03-26T05:37:23.398Z,8.08
2018-03-26T05:38:23.830Z,8.15
2018-03-26T05:39:24.269Z,8.37
2018-03-26T05:40:24.666Z,8.34
2018-03-26T05:41:25.087Z,8.27
2018-03-26T05:42:25.518Z,8.30
2018-03-26T05:43:25.936Z,8.23
2018-03-26T05:44:26.366Z,8.15
2018-03-26T05:45:26.794Z,8.19
2018-03-26T05:46:27.212Z,8.06
2018-03-26T05:47:27.637Z,8.06
2018-03-26T05:48:28.090Z,8.15
2018-03-26T05:49:28.490Z,8.13
2018-03-26T05:50:28.927Z,8.19
2018-03-26T05:51:29.340Z,8.18
2018-03-26T05:52:29.762Z,8.16
2018-03-26T05:53:30.198Z,8.12
2018-03-26T05:54:30.613Z,8.19
2018-03-26T05:55:31.055Z,8.18
2018-03-26T05:56:31.459Z,8.23
2018-03-26T05:57:31.889Z,8.15
2018-03-26T05:58:32.307Z,8.23
2018-03-26T05:59:32.736Z,8.26
2018-03-26T06:00:33.177Z,8.19
2018-03-26T06:01:33.601Z,8.26
2018-03-26T06:02:34.021Z,8.28
2018-03-26T06:03:34.447Z,8.24
2018-03-26T06:04:34.904Z,8.28
2018-03-26T06:05:35.289Z,8.19
2018-03-26T06:06:35.715Z,8.18
2018-03-26T06:07:36.137Z,8.24
2018-03-26T06:08:36.566Z,8.24
2018-03-26T06:09:37.001Z,8.26
2018-03-26T06:10:37.413Z,8.26
2018-03-26T06:11:37.845Z,8.36
2018-03-26T06:12:38.263Z,8.26
2018-03-26T06:13:38.686Z,8.41
2018-03-26T06:14:39.112Z,8.31
2018-03-26T06:15:39.550Z,8.26
2018-03-26T06:16:39.976Z,8.26
2018-03-26T06:17:40.386Z,8.33
2018-03-26T06:18:40.811Z,8.37
2018-03-26T06:19:41.238Z,8.34
2018-03-26T06:20:41.685Z,8.33
2018-03-26T06:21:42.089Z,8.48
2018-03-26T06:22:42.518Z,8.28
2018-03-26T06:23:42.934Z,8.31
2018-03-26T06:24:43.393Z,8.44
2018-03-26T06:25:43.792Z,8.48
2018-03-26T06:26:44.216Z,8.44
2018-03-26T06:27:44.638Z,8.34
2018-03-26T06:28:45.072Z,8.37
2018-03-26T06:29:45.508Z,8.34
2018-03-26T06:30:45.987Z,8.18
2018-03-26T06:31:46.339Z,8.23
2018-03-26T06:32:46.775Z,8.26
2018-03-26T06:33:47.190Z,8.18
2018-03-26T06:34:47.626Z,8.20
2018-03-26T06:35:48.044Z,8.20
2018-03-26T06:36:48.465Z,8.16
2018-03-26T06:37:48.889Z,8.15
2018-03-26T06:38:49.312Z,8.13
2018-03-26T06:39:49.746Z,8.26
2018-03-26T06:40:50.164Z,8.20
2018-03-26T06:41:50.602Z,8.20
2018-03-26T06:42:51.038Z,8.24
2018-03-26T06:43:51.440Z,8.30
2018-03-26T06:44:51.870Z,8.23
2018-03-26T06:45:52.303Z,8.20
2018-03-26T06:46:52.725Z,8.18
2018-03-26T06:47:53.147Z,8.20
2018-03-26T06:48:53.567Z,8.18
2018-03-26T06:49:54.021Z,8.15
2018-03-26T06:50:54.415Z,8.23
2018-03-26T06:51:54.845Z,8.12
2018-03-26T06:52:55.265Z,8.20
2018-03-26T06:53:55.698Z,8.18
2018-03-26T06:54:56.120Z,8.28
2018-03-26T06:55:56.536Z,8.20
2018-03-26T06:56:56.977Z,8.20
2018-03-26T06:57:57.398Z,8.36
2018-03-26T06:58:57.854Z,8.27
2018-03-26T06:59:58.284Z,8.28
2018-03-26T07:00:58.671Z,8.36
2018-03-26T07:01:59.092Z,8.36
2018-03-26T07:02:59.525Z,8.44
2018-03-26T07:03:59.944Z,8.52
2018-03-26T07:05:00.389Z,8.42
2018-03-26T07:06:00.797Z,8.41
2018-03-26T07:07:01.222Z,8.38
2018-03-26T07:08:01.649Z,8.44
2018-03-26T07:09:02.081Z,8.42
2018-03-26T07:10:02.492Z,8.31
2018-03-26T07:11:02.921Z,8.46
2018-03-26T07:12:03.346Z,8.37
2018-03-26T07:13:03.789Z,8.38
2018-03-26T07:14:04.204Z,8.36
2018-03-26T07:15:04.644Z,8.41
2018-03-26T07:16:05.042Z,8.48
2018-03-26T07:17:05.522Z,8.23
2018-03-26T07:18:05.906Z,8.20
2018-03-26T07:19:06.324Z,8.23
2018-03-26T07:20:06.784Z,8.30
2018-03-26T07:21:07.173Z,8.28
2018-03-26T07:22:07.597Z,8.28
2018-03-26T07:23:08.020Z,8.23
2018-03-26T07:24:08.450Z,8.26
2018-03-26T07:25:08.872Z,8.31
2018-03-26T07:26:09.301Z,8.41
2018-03-26T07:27:09.747Z,8.33
2018-03-26T07:28:10.166Z,8.46
2018-03-26T07:29:10.571Z,8.48
2018-03-26T07:30:10.997Z,8.51
2018-03-26T07:31:11.428Z,8.55
2018-03-26T07:32:11.848Z,8.64
2018-03-26T07:33:12.279Z,8.45
2018-03-26T07:34:12.701Z,8.42
2018-03-26T07:35:13.128Z,8.37
2018-03-26T07:36:13.557Z,8.55
2018-03-26T07:37:13.993Z,8.41
2018-03-26T07:38:14.413Z,8.42
2018-03-26T07:39:14.833Z,8.20
2018-03-26T07:40:15.257Z,8.23
2018-03-26T07:41:15.705Z,8.18
2018-03-26T07:42:16.106Z,8.18
2018-03-26T07:43:16.547Z,8.15
2018-03-26T07:44:16.967Z,8.16
2018-03-26T07:45:17.379Z,8.42
2018-03-26T07:46:17.804Z,8.56
2018-03-26T07:47:18.236Z,8.56
2018-03-26T07:48:18.662Z,8.48
2018-03-26T07:49:19.093Z,8.49
2018-03-26T07:50:19.507Z,8.48
2018-03-26T07:51:19.932Z,8.67
2018-03-26T07:52:20.356Z,8.45
2018-03-26T07:53:20.787Z,8.63
2018-03-26T07:54:21.209Z,8.61
2018-03-26T07:55:21.659Z,8.61
2018-03-26T07:56:22.069Z,8.31
2018-03-26T07:57:22.484Z,8.27
2018-03-26T07:58:22.915Z,8.44
2018-03-26T07:59:23.338Z,8.46
2018-03-26T08:00:24.476Z,8.33
2018-03-26T08:01:24.196Z,8.34
2018-03-26T08:02:24.620Z,8.36
2018-03-26T08:03:25.136Z,8.51
2018-03-26T08:04:25.464Z,8.56
2018-03-26T08:05:25.904Z,8.46
2018-03-26T08:06:26.319Z,8.66
2018-03-26T08:07:26.738Z,8.70
2018-03-26T08:08:27.172Z,8.51
2018-03-26T08:09:27.592Z,8.46
2018-03-26T08:10:28.030Z,8.46
2018-03-26T08:11:28.468Z,8.44
2018-03-26T08:12:28.898Z,8.46
2018-03-26T08:13:29.295Z,8.66
2018-03-26T08:14:29.729Z,8.45
2018-03-26T08:15:30.166Z,8.52
2018-03-26T08:16:30.570Z,8.58
2018-03-26T08:17:30.999Z,8.44
2018-03-26T08:18:31.428Z,8.55
2018-03-26T08:19:31.852Z,8.63
2018-03-26T08:20:32.383Z,8.60
2018-03-26T08:21:32.698Z,8.49
2018-03-26T08:22:33.126Z,8.45
2018-03-26T08:23:33.556Z,8.52
2018-03-26T08:24:33.977Z,8.38
2018-03-26T08:25:34.411Z,8.44
2018-03-26T08:26:34.834Z,8.49
2018-03-26T08:27:35.255Z,8.56
2018-03-26T08:28:35.682Z,8.63
2018-03-26T08:29:36.105Z,8.79
2018-03-26T08:30:36.534Z,8.76
2018-03-26T08:31:36.953Z,8.87
2018-03-26T08:32:37.400Z,8.71
2018-03-26T08:33:37.822Z,8.74
2018-03-26T08:34:38.238Z,8.79
2018-03-26T08:35:38.670Z,8.76
2018-03-26T08:36:39.101Z,8.67
2018-03-26T08:37:39.518Z,8.74
2018-03-26T08:38:39.952Z,8.53
2018-03-26T08:39:40.368Z,8.63
2018-03-26T08:40:40.792Z,8.61
2018-03-26T08:41:41.215Z,8.69
2018-03-26T08:42:41.637Z,8.71
2018-03-26T08:43:42.096Z,8.64
2018-03-26T08:44:42.494Z,8.76
2018-03-26T08:45:42.921Z,8.78
2018-03-26T08:46:43.342Z,8.76
2018-03-26T08:47:43.773Z,8.56
2018-03-26T08:48:44.199Z,8.61
2018-03-26T08:49:44.662Z,8.71
2018-03-26T08:50:45.052Z,8.76
2018-03-26T08:51:45.480Z,8.78
2018-03-26T08:52:45.907Z,8.63
2018-03-26T08:53:46.335Z,8.69
2018-03-26T08:54:46.759Z,8.67
2018-03-26T08:55:47.179Z,8.45
2018-03-26T08:56:47.645Z,8.48
2018-03-26T08:57:48.045Z,8.61
2018-03-26T08:58:48.463Z,8.53
2018-03-26T08:59:48.886Z,8.49
2018-03-26T09:00:49.306Z,8.63
2018-03-26T09:01:49.732Z,8.56
2018-03-26T09:02:50.162Z,8.55
2018-03-26T09:03:50.585Z,8.66
2018-03-26T09:04:51.010Z,8.69
2018-03-26T09:05:51.464Z,8.71
2018-03-26T09:06:51.886Z,8.79
2018-03-26T09:07:52.289Z,8.95
2018-03-26T09:08:52.719Z,8.87
2018-03-26T09:09:53.146Z,8.81
2018-03-26T09:10:53.572Z,8.91
2018-03-26T09:11:54.033Z,8.95
2018-03-26T09:12:54.421Z,9.02
2018-03-26T09:13:54.845Z,9.00
2018-03-26T09:14:55.273Z,9.23
2018-03-26T09:15:55.697Z,9.41
2018-03-26T09:16:56.146Z,9.44
2018-03-26T09:17:56.558Z,9.59
2018-03-26T09:18:56.977Z,9.40
2018-03-26T09:19:57.405Z,9.03
2018-03-26T09:20:57.843Z,9.11
2018-03-26T09:21:58.265Z,9.19
2018-03-26T09:22:58.688Z,9.37
2018-03-26T09:23:59.114Z,9.56
2018-03-26T09:24:59.550Z,9.79
2018-03-26T09:25:59.969Z,9.82
2018-03-26T09:27:00.421Z,9.68
2018-03-26T09:28:00.823Z,9.55
2018-03-26T09:29:01.249Z,9.55
2018-03-26T09:30:01.676Z,9.56
2018-03-26T09:31:02.111Z,9.73
2018-03-26T09:32:02.533Z,9.69
2018-03-26T09:33:02.961Z,9.69
2018-03-26T09:34:03.395Z,9.76
2018-03-26T09:35:03.819Z,9.68
2018-03-26T09:36:04.249Z,9.95
2018-03-26T09:37:04.684Z,10.02
2018-03-26T09:38:05.131Z,9.95
2018-03-26T09:39:05.543Z,9.82
2018-03-26T09:40:05.967Z,9.72
2018-03-26T09:41:06.388Z,9.94
2018-03-26T09:42:06.816Z,9.94
2018-03-26T09:43:07.241Z,10.01
2018-03-26T09:44:07.689Z,9.99
2018-03-26T09:45:08.101Z,9.80
2018-03-26T09:46:08.529Z,10.10
2018-03-26T09:47:08.954Z,10.30
2018-03-26T09:48:09.406Z,10.40
2018-03-26T09:49:09.814Z,10.38
2018-03-26T09:50:10.245Z,10.07
2018-03-26T09:51:10.705Z,9.95
2018-03-26T09:52:11.100Z,10.01
2018-03-26T09:53:11.527Z,9.77
2018-03-26T09:54:11.954Z,9.95
2018-03-26T09:55:12.398Z,9.98
2018-03-26T09:56:12.824Z,10.16
2018-03-26T09:57:13.240Z,10.20
2018-03-26T09:58:13.669Z,10.12
2018-03-26T09:59:14.103Z,9.98
2018-03-26T10:00:14.536Z,9.87
2018-03-26T10:01:14.959Z,10.05
2018-03-26T10:02:15.384Z,9.91
2018-03-26T10:03:15.814Z,9.89
2018-03-26T10:04:16.283Z,9.98
2018-03-26T10:05:16.672Z,9.82
2018-03-26T10:06:17.101Z,9.99
2018-03-26T10:07:17.528Z,9.86
2018-03-26T10:08:17.954Z,9.76
2018-03-26T10:09:18.392Z,10.01
2018-03-26T10:10:18.810Z,9.99
2018-03-26T10:11:19.244Z,9.76
2018-03-26T10:12:19.669Z,9.72
2018-03-26T10:13:20.095Z,9.89
2018-03-26T10:14:20.519Z,9.87
2018-03-26T10:15:20.963Z,9.87
2018-03-26T10:16:21.380Z,9.87
2018-03-26T10:17:21.807Z,9.66
2018-03-26T10:18:22.240Z,9.74
2018-03-26T10:19:22.663Z,9.91
2018-03-26T10:20:23.093Z,10.23
2018-03-26T10:21:23.518Z,9.97
2018-03-26T10:22:23.947Z,9.82
2018-03-26T10:23:24.376Z,9.99
2018-03-26T10:24:24.824Z,9.77
2018-03-26T10:25:25.234Z,9.91
2018-03-26T10:26:25.668Z,9.77
2018-03-26T10:27:26.088Z,10.04
2018-03-26T10:28:26.514Z,10.04
2018-03-26T10:29:26.946Z,10.10
2018-03-26T10:30:27.409Z,10.12
2018-03-26T10:31:27.808Z,10.20
2018-03-26T10:32:28.226Z,9.89
2018-03-26T10:33:28.657Z,9.64
2018-03-26T10:34:29.086Z,9.58
2018-03-26T10:35:29.518Z,9.86
2018-03-26T10:36:29.942Z,9.76
2018-03-26T10:37:30.374Z,9.65
2018-03-26T10:38:30.830Z,9.98
2018-03-26T10:39:31.225Z,9.79
2018-03-26T10:40:31.649Z,9.62
2018-03-26T10:41:32.084Z,9.48
2018-03-26T10:42:32.514Z,9.48
2018-03-26T10:43:32.934Z,9.54
2018-03-26T10:44:33.370Z,9.32
2018-03-26T10:45:33.794Z,9.43
2018-03-26T10:46:34.250Z,9.62
2018-03-26T10:47:34.655Z,9.59
2018-03-26T10:48:35.075Z,9.80
2018-03-26T10:49:35.498Z,10.10
2018-03-26T10:50:35.927Z,10.20
2018-03-26T10:51:36.403Z,11.57
2018-03-26T10:52:36.782Z,11.30
2018-03-26T10:53:37.216Z,11.05
2018-03-26T10:54:37.654Z,11.26
2018-03-26T10:55:38.071Z,10.38
2018-03-26T10:56:38.511Z,9.54
2018-03-26T10:57:38.944Z,9.77
2018-03-26T10:58:39.352Z,9.55
2018-03-26T10:59:39.776Z,9.55
2018-03-26T11:00:40.195Z,9.80
2018-03-26T11:01:40.634Z,10.76
2018-03-26T11:02:41.065Z,11.69
2018-03-26T11:03:41.481Z,10.92
2018-03-26T11:04:41.919Z,10.44
2018-03-26T11:05:42.387Z,10.17
2018-03-26T11:06:42.761Z,9.68
2018-03-26T11:07:43.194Z,9.56
2018-03-26T11:08:43.614Z,10.01
2018-03-26T11:09:44.044Z,9.61
2018-03-26T11:10:44.469Z,9.56
2018-03-26T11:11:44.894Z,9.66
2018-03-26T11:12:45.326Z,9.59
2018-03-26T11:13:45.749Z,9.65
2018-03-26T11:14:46.175Z,9.39
2018-03-26T11:15:46.606Z,9.39
2018-03-26T11:16:47.040Z,9.40
2018-03-26T11:17:47.457Z,9.51
2018-03-26T11:18:47.940Z,9.46
2018-03-26T11:19:48.312Z,9.41
2018-03-26T11:20:48.745Z,9.36
2018-03-26T11:21:49.168Z,-40.00
2018-03-26T11:22:49.622Z,-40.00
2018-03-26T11:23:50.014Z,-40.00
2018-03-26T11:24:50.446Z,-40.00
2018-03-26T11:25:50.901Z,-40.00
2018-03-26T11:26:51.300Z,-40.00
2018-03-26T11:27:51.723Z,-40.00
2018-03-26T11:28:52.150Z,-40.00
2018-03-26T11:29:52.603Z,-40.00
2018-03-26T11:30:53.012Z,-40.00
2018-03-26T11:31:53.431Z,-40.00
2018-03-26T11:32:53.859Z,-40.00
2018-03-26T11:33:54.284Z,-40.00
2018-03-26T11:34:54.710Z,-40.00
2018-03-26T11:35:55.151Z,-40.00
2018-03-26T11:36:55.569Z,-40.00
2018-03-26T11:37:55.997Z,-40.00
2018-03-26T11:38:56.417Z,-40.00
2018-03-26T11:39:56.888Z,-40.00
2018-03-26T11:40:57.279Z,-40.00
2018-03-26T11:41:57.694Z,-40.00
2018-03-26T11:42:58.122Z,-40.00
2018-03-26T11:43:58.552Z,-40.00
2018-03-26T11:44:58.971Z,-40.00
2018-03-26T11:45:59.401Z,-40.00
2018-03-26T11:46:59.834Z,-40.00
2018-03-26T11:48:00.248Z,-40.00
2018-03-26T11:49:00.681Z,-40.00
2018-03-26T11:50:01.098Z,-40.00
2018-03-26T11:51:01.560Z,-40.00
2018-03-26T11:52:01.957Z,-40.00
2018-03-26T11:53:02.378Z,-40.00
2018-03-26T11:54:02.801Z,-40.00
2018-03-26T11:55:03.236Z,-40.00
2018-03-26T11:56:03.661Z,-40.00
2018-03-26T11:57:04.085Z,-40.00
2018-03-26T11:58:04.510Z,-40.00
2018-03-26T11:59:04.931Z,-40.00
2018-03-26T12:00:05.362Z,-40.00
2018-03-26T12:01:05.789Z,-40.00
2018-03-26T12:02:06.279Z,-40.00
2018-03-26T12:03:06.642Z,-40.00
2018-03-26T12:04:07.058Z,-40.00
2018-03-26T12:05:07.493Z,-40.00
2018-03-26T12:06:07.918Z,-40.00
2018-03-26T12:07:08.336Z,-40.00
2018-03-26T12:08:08.765Z,-40.00
2018-03-26T12:09:09.207Z,-40.00
2018-03-26T12:10:09.623Z,-40.00
2018-03-26T12:11:10.038Z,-40.00
2018-03-26T12:12:10.466Z,-40.00
2018-03-26T12:13:10.900Z,-40.00
2018-03-26T12:14:11.315Z,-40.00
2018-03-26T12:15:11.750Z,-40.00
2018-03-26T12:16:12.165Z,-40.00
2018-03-26T12:17:12.607Z,-40.00
2018-03-26T12:18:13.015Z,-40.00
2018-03-26T12:19:13.470Z,-40.00
2018-03-26T12:20:13.871Z,-40.00
2018-03-26T12:21:14.295Z,-40.00
2018-03-26T12:22:14.720Z,-40.00
2018-03-26T12:23:15.245Z,-40.00
2018-03-26T12:24:15.578Z,-40.00
2018-03-26T12:25:16.004Z,-40.00
2018-03-26T12:26:16.428Z,-40.00
2018-03-26T12:27:16.851Z,-40.00
2018-03-26T12:28:17.306Z,-40.00
2018-03-26T12:29:17.702Z,-40.00
2018-03-26T12:30:18.151Z,-40.00
2018-03-26T12:31:18.583Z,-40.00
2018-03-26T12:32:18.972Z,-40.00
2018-03-26T12:33:19.407Z,-40.00
2018-03-26T12:34:19.829Z,-40.00
2018-03-26T12:35:20.267Z,-40.00
2018-03-26T12:36:20.689Z,-40.00
2018-03-26T12:37:21.103Z,-40.00
2018-03-26T12:38:21.532Z,-40.00
2018-03-26T12:39:21.961Z,-40.00
2018-03-26T12:40:22.385Z,-40.00
2018-03-26T12:41:22.805Z,-40.00
2018-03-26T12:42:23.228Z,-40.00
2018-03-26T12:43:23.657Z,-40.00
2018-03-26T12:44:24.091Z,-40.00
2018-03-26T12:45:24.507Z,-40.00
2018-03-26T12:46:24.962Z,-40.00
2018-03-26T12:47:25.369Z,-40.00
2018-03-26T12:48:25.787Z,-40.00
2018-03-26T12:49:26.217Z,-40.00
2018-03-26T12:50:26.641Z,-40.00
2018-03-26T12:51:27.069Z,-40.00
2018-03-26T12:52:27.528Z,-40.00
2018-03-26T12:53:27.912Z,-40.00
2018-03-26T12:54:28.331Z,-40.00
2018-03-26T12:55:28.761Z,-40.00
2018-03-26T12:56:29.181Z,-40.00
2018-03-26T12:57:29.619Z,-40.00
2018-03-26T12:58:30.050Z,-40.00
2018-03-26T12:59:30.462Z,-40.00
2018-03-26T13:00:30.893Z,-40.00
2018-03-26T13:01:31.315Z,-40.00
2018-03-26T13:02:31.806Z,-40.00
2018-03-26T13:03:32.203Z,-40.00
2018-03-26T13:04:32.589Z,-40.00
2018-03-26T13:05:33.011Z,-40.00
2018-03-26T13:06:33.441Z,-40.00
2018-03-26T13:07:33.866Z,-40.00
2018-03-26T13:08:34.292Z,-40.00
2018-03-26T13:09:34.706Z,-40.00
2018-03-26T13:10:35.141Z,-40.00
2018-03-26T13:11:35.565Z,-40.00
2018-03-26T13:12:35.996Z,-40.00
2018-03-26T13:13:36.415Z,-40.00
2018-03-26T13:14:36.834Z,-40.00